Time;durP1;ratioP1;P1;durP2;ratioP2;P2;SDS_P1;SDS_P2;PMS_P1;PMS_P2;Temp;Humidity;BMP_temperature;BMP_pressure;BME280_temperature;BME280_humidity;BME280_pressure;Samples;Min_cycle;Max_cycle;Signal;HPM_P1;HPM_P2
2024/05/06 00:01:42;;;;;;;1.95;1.50;;;;;;;14.35;46.79;97833.06;5399812;26;20830;-46
2024/05/06 00:04:14;;;;;;;1.77;1.67;;;;;;;14.19;47.54;97837.59;5396198;26;20494;-46
2024/05/06 00:06:43;;;;;;;1.35;1.20;;;;;;;14.15;47.47;97830.41;5399722;26;22048;-46
2024/05/06 00:09:13;;;;;;;1.83;1.73;;;;;;;14.22;47.28;97825.63;5398100;26;20899;-46
2024/05/06 00:11:43;;;;;;;1.55;1.45;;;;;;;14.30;47.43;97830.41;5398275;26;20092;-45
2024/05/06 00:14:12;;;;;;;1.02;1.02;;;;;;;14.31;47.42;97821.34;5406316;26;20429;-46
2024/05/06 00:16:42;;;;;;;1.88;1.70;;;;;;;14.38;47.10;97797.94;5398206;26;21207;-46
2024/05/06 00:19:14;;;;;;;1.65;1.25;;;;;;;14.44;47.35;97805.91;5378458;26;20277;-46
2024/05/06 00:21:44;;;;;;;1.55;1.30;;;;;;;14.37;47.07;97812.31;5397994;26;20634;-47
2024/05/06 00:24:14;;;;;;;2.10;1.90;;;;;;;14.37;47.20;97809.66;5399471;26;21601;-47
2024/05/06 00:26:43;;;;;;;1.00;1.00;;;;;;;14.40;47.44;97803.78;5397387;26;20811;-47
2024/05/06 00:29:13;;;;;;;1.38;1.27;;;;;;;14.43;47.16;97791.84;5392883;26;21787;-47
2024/05/06 00:31:42;;;;;;;2.42;1.27;;;;;;;14.44;47.26;97785.44;5397335;26;21976;-47
2024/05/06 00:34:14;;;;;;;1.65;1.20;;;;;;;14.46;47.52;97790.50;5397436;26;20003;-46
2024/05/06 00:36:44;;;;;;;1.38;1.17;;;;;;;14.45;47.00;97784.38;5386197;26;20107;-46
2024/05/06 00:39:14;;;;;;;1.58;1.48;;;;;;;14.46;47.27;97793.16;5382597;26;20012;-46
2024/05/06 00:41:43;;;;;;;1.65;1.55;;;;;;;14.48;47.12;97785.75;5398668;26;20442;-46
2024/05/06 00:44:13;;;;;;;1.23;1.20;;;;;;;14.48;47.23;97793.72;5399085;26;20010;-47
2024/05/06 00:46:43;;;;;;;1.98;1.40;;;;;;;14.48;47.26;97786.53;5393661;26;20004;-46
2024/05/06 00:49:15;;;;;;;1.60;1.50;;;;;;;14.48;47.54;97786.53;5393961;26;20119;-46
2024/05/06 00:51:45;;;;;;;1.70;1.60;;;;;;;;;;5399121;26;19999;-46
2024/05/06 00:54:16;;;;;;;1.30;1.30;;;;;;;14.45;47.24;97784.38;5398551;26;20520;-46
2024/05/06 00:56:46;;;;;;;1.38;1.30;;;;;;;14.47;47.40;97792.91;5399393;26;20450;-46
2024/05/06 00:59:19;;;;;;;1.77;1.67;;;;;;;14.48;47.33;97791.84;5398002;26;20540;-46
2024/05/06 01:01:50;;;;;;;1.90;1.27;;;;;;;14.50;46.97;97802.22;5396252;26;20945;-46
2024/05/06 01:04:25;;;;;;;1.58;1.48;;;;;;;14.53;47.33;97806.97;5396766;26;21569;-46
2024/05/06 01:06:54;;;;;;;1.98;1.67;;;;;;;14.52;47.62;97805.38;5396230;26;20010;-45
2024/05/06 01:09:24;;;;;;;1.80;1.75;;;;;;;14.51;47.50;97804.59;5399200;26;20008;-44
2024/05/06 01:11:54;;;;;;;2.35;1.50;;;;;;;14.52;47.38;97802.72;5384427;26;20011;-45
2024/05/06 01:14:23;;;;;;;1.50;1.38;;;;;;;14.50;47.58;97810.97;5411027;26;20330;-47
2024/05/06 01:16:53;;;;;;;1.52;1.42;;;;;;;14.52;47.45;97802.72;5397730;26;21590;-46
2024/05/06 01:19:25;;;;;;;3.72;1.90;;;;;;;14.45;47.91;97792.34;5391432;26;20658;-47
2024/05/06 01:21:59;;;;;;;1.40;1.30;;;;;;;14.46;47.61;97782.53;5398420;26;20726;-47
2024/05/06 01:24:31;;;;;;;1.70;1.60;;;;;;;14.40;47.82;97789.72;5400622;26;20865;-46
2024/05/06 01:27:01;;;;;;;1.65;1.58;;;;;;;14.42;47.53;97797.41;5397625;26;20666;-47
2024/05/06 01:29:31;;;;;;;1.48;1.38;;;;;;;14.42;47.99;97792.88;5399321;26;20078;-46
2024/05/06 01:32:01;;;;;;;1.58;1.45;;;;;;;14.45;47.60;97791.56;5401117;26;20011;-47
2024/05/06 01:34:30;;;;;;;2.28;1.45;;;;;;;14.47;47.31;97789.47;5400772;26;20057;-46
2024/05/06 01:37:00;;;;;;;1.27;1.27;;;;;;;14.47;47.30;97781.47;5401758;26;20007;-47
2024/05/06 01:39:32;;;;;;;1.73;1.55;;;;;;;14.43;47.72;97783.84;5401850;26;20053;-46
2024/05/06 01:42:01;;;;;;;1.30;1.30;;;;;;;14.45;47.40;97775.63;5402601;26;20440;-46
2024/05/06 01:44:31;;;;;;;1.65;1.55;;;;;;;14.45;47.76;97772.97;5401278;26;20516;-46
2024/05/06 01:47:00;;;;;;;2.35;1.40;;;;;;;14.44;47.79;97772.16;5397806;26;19996;-46
2024/05/06 01:49:30;;;;;;;2.05;1.85;;;;;;;14.45;47.71;97765.78;5388030;26;20024;-45
2024/05/06 01:52:00;;;;;;;2.42;1.45;;;;;;;14.47;47.58;97762.88;5397235;26;20457;-46
2024/05/06 01:54:32;;;;;;;1.50;1.40;;;;;;;14.42;47.77;97760.22;5401703;26;20293;-46
2024/05/06 01:57:02;;;;;;;1.60;1.13;;;;;;;14.39;47.63;97767.66;5399765;26;20027;-47
2024/05/06 01:59:31;;;;;;;1.95;1.17;;;;;;;14.35;47.70;97761.31;5401721;26;19995;-47
2024/05/06 02:02:01;;;;;;;1.05;1.05;;;;;;;14.38;47.48;97749.34;5393778;26;20015;-46
2024/05/06 02:04:30;;;;;;;1.83;1.73;;;;;;;14.40;47.74;97736.56;5399801;26;20018;-47
2024/05/06 02:07:00;;;;;;;1.17;1.15;;;;;;;14.40;47.70;97747.19;5398157;26;21711;-46
2024/05/06 02:09:33;;;;;;;1.27;1.17;;;;;;;14.38;47.62;97746.66;5399985;26;20580;-47
2024/05/06 02:12:02;;;;;;;1.10;1.10;;;;;;;14.34;48.29;97732.34;5399680;26;21467;-46
2024/05/06 02:14:32;;;;;;;1.10;1.02;;;;;;;14.30;47.54;97731.28;5400788;26;20540;-47
2024/05/06 02:17:01;;;;;;;1.58;1.45;;;;;;;14.28;48.26;97731.56;5386969;26;21073;-47
2024/05/06 02:19:31;;;;;;;0.95;0.95;;;;;;;14.28;48.09;97720.91;5399790;26;21712;-46
2024/05/06 02:22:00;;;;;;;1.23;1.20;;;;;;;14.32;48.29;97724.66;5400215;26;20484;-46
2024/05/06 02:24:32;;;;;;;0.95;0.95;;;;;;;14.33;48.32;97714.81;5392064;26;20008;-46
2024/05/06 02:27:02;;;;;;;1.38;1.38;;;;;;;14.25;48.54;97715.34;5400712;26;21003;-47
2024/05/06 02:29:32;;;;;;;1.10;1.08;;;;;;;14.27;48.61;97721.22;5398738;26;20061;-47
2024/05/06 02:32:01;;;;;;;1.40;1.30;;;;;;;14.32;48.34;97715.88;5400113;26;20506;-46
2024/05/06 02:34:31;;;;;;;1.08;1.08;;;;;;;14.38;48.15;97715.56;5400634;26;19999;-46
2024/05/06 02:37:00;;;;;;;1.27;1.20;;;;;;;14.36;48.34;97715.06;5400044;26;20073;-46
2024/05/06 02:39:32;;;;;;;1.33;1.10;;;;;;;14.35;48.48;97715.31;5401182;26;20081;-46
2024/05/06 02:42:02;;;;;;;2.15;1.30;;;;;;;14.37;48.60;97702.56;5401211;26;20027;-46
2024/05/06 02:44:31;;;;;;;1.27;1.17;;;;;;;14.38;48.19;97707.59;5400330;26;20450;-46
2024/05/06 02:47:01;;;;;;;1.40;1.30;;;;;;;14.40;48.40;97710.00;5400148;26;20015;-46
2024/05/06 02:49:31;;;;;;;1.10;0.98;;;;;;;14.39;48.53;97717.19;5400895;26;20013;-46
2024/05/06 02:52:00;;;;;;;1.58;1.35;;;;;;;14.35;48.65;97713.47;5399296;26;20539;-47
2024/05/06 02:54:32;;;;;;;1.63;1.30;;;;;;;14.36;48.37;97714.28;5398691;26;20049;-46
2024/05/06 02:57:02;;;;;;;1.58;1.48;;;;;;;14.39;48.35;97703.88;5399293;26;20012;-47
2024/05/06 02:59:31;;;;;;;0.98;0.98;;;;;;;14.43;48.47;97695.38;5397212;26;20018;-46
2024/05/06 03:02:01;;;;;;;1.00;1.00;;;;;;;14.36;48.72;97706.31;5399663;26;20350;-46
2024/05/06 03:04:31;;;;;;;1.95;1.85;;;;;;;14.33;48.74;97709.50;5393723;26;20354;-45
2024/05/06 03:07:01;;;;;;;1.48;1.10;;;;;;;14.28;48.96;97704.97;5387913;26;20097;-46
2024/05/06 03:09:33;;;;;;;1.60;1.50;;;;;;;14.30;49.38;97716.16;5391030;26;19999;-47
2024/05/06 03:12:03;;;;;;;1.60;1.50;;;;;;;14.26;49.21;97706.34;5389701;26;20088;-46
2024/05/06 03:14:32;;;;;;;2.08;1.13;;;;;;;14.30;49.22;97704.72;5397776;26;20076;-46
2024/05/06 03:17:02;;;;;;;1.30;1.17;;;;;;;14.31;49.08;97706.31;5397751;26;21765;-46
2024/05/06 03:19:31;;;;;;;1.38;1.27;;;;;;;14.23;49.23;97707.69;5399237;26;20591;-47
2024/05/06 03:22:01;;;;;;;1.98;1.70;;;;;;;14.28;49.08;97712.94;5379927;26;20052;-46
2024/05/06 03:24:33;;;;;;;0.98;0.98;;;;;;;14.32;49.22;97713.22;5398849;26;21587;-46
2024/05/06 03:27:03;;;;;;;1.83;1.73;;;;;;;14.26;49.22;97712.44;5399826;26;20015;-47
2024/05/06 03:29:33;;;;;;;1.00;1.00;;;;;;;14.26;49.17;97716.97;5398584;26;20794;-45
2024/05/06 03:32:02;;;;;;;1.40;1.40;;;;;;;14.30;49.23;97716.16;5400672;26;20594;-46
2024/05/06 03:34:32;;;;;;;1.27;1.10;;;;;;;14.34;49.36;97703.13;5392667;26;21519;-47
2024/05/06 03:37:02;;;;;;;1.70;1.60;;;;;;;14.37;49.14;97703.38;5396606;26;20194;-47
2024/05/06 03:39:34;;;;;;;1.40;1.30;;;;;;;14.38;49.04;97706.81;5400043;26;20009;-47
2024/05/06 03:42:04;;;;;;;1.85;1.75;;;;;;;14.40;48.87;97696.69;5396695;26;21974;-46
2024/05/06 03:44:34;;;;;;;1.75;1.17;;;;;;;14.39;48.97;97687.16;5400874;26;21446;-46
2024/05/06 03:47:04;;;;;;;1.65;1.55;;;;;;;14.38;48.59;97688.22;5399515;26;22180;-46
2024/05/06 03:49:34;;;;;;;2.25;1.83;;;;;;;14.34;48.90;97689.84;5400002;26;20211;-46
2024/05/06 03:52:03;;;;;;;1.67;1.63;;;;;;;14.26;49.29;97690.41;5398927;26;22159;-46
2024/05/06 03:54:35;;;;;;;1.35;1.30;;;;;;;14.19;49.42;97696.00;5398815;26;20015;-46
2024/05/06 03:57:05;;;;;;;1.20;1.10;;;;;;;14.10;49.48;97695.75;5396779;26;20522;-46
2024/05/06 03:59:35;;;;;;;1.27;1.00;;;;;;;14.11;49.38;97685.94;5386771;26;20001;-46
2024/05/06 04:02:04;;;;;;;1.75;1.30;;;;;;;14.17;48.95;97690.94;5392554;26;20104;-46
2024/05/06 04:04:34;;;;;;;1.10;1.10;;;;;;;14.15;49.40;97687.78;5399917;26;20004;-47
2024/05/06 04:07:03;;;;;;;1.50;1.50;;;;;;;14.15;49.12;97687.00;5400468;26;20006;-46
2024/05/06 04:09:37;;;;;;;1.00;0.85;;;;;;;14.19;48.68;97685.38;5399976;26;20694;-46
2024/05/06 04:12:07;;;;;;;0.50;0.50;;;;;;;14.22;48.05;97682.19;5398883;26;20011;-47
2024/05/06 04:14:36;;;;;;;1.27;1.20;;;;;;;14.23;48.51;97657.22;5411924;26;20954;-46
2024/05/06 04:17:06;;;;;;;0.98;0.88;;;;;;;14.28;48.55;97678.41;5398643;26;20433;-47
2024/05/06 04:19:36;;;;;;;0.93;0.93;;;;;;;14.27;48.18;97671.53;5377358;26;20586;-46
2024/05/06 04:22:06;;;;;;;1.30;1.15;;;;;;;14.28;48.43;97673.09;5399194;26;20037;-46
2024/05/06 04:27:24;;;;;;;1.02;1.02;;;;;;;14.23;48.47;97673.16;5395686;26;20012;-45
2024/05/06 04:29:53;;;;;;;1.27;1.27;;;;;;;14.25;48.45;97680.81;5399664;26;20007;-47
2024/05/06 04:32:23;;;;;;;1.42;1.33;;;;;;;14.27;48.47;97676.06;5378555;26;20708;-47
2024/05/06 04:34:53;;;;;;;1.17;1.17;;;;;;;14.26;48.61;97682.44;5387976;26;21128;-46
2024/05/06 04:37:20;;;;;;;1.33;1.23;;;;;;;14.24;48.55;97684.56;5397928;26;20592;-46
2024/05/06 04:39:52;;;;;;;0.90;0.90;;;;;;;14.27;48.62;97676.06;5398580;26;19999;-47
2024/05/06 04:42:21;;;;;;;1.30;1.30;;;;;;;14.31;48.51;97675.22;5399718;26;20072;-46
2024/05/06 04:44:51;;;;;;;1.88;1.10;;;;;;;14.32;48.55;97668.84;5400172;26;20016;-46
2024/05/06 04:47:21;;;;;;;1.40;1.30;;;;;;;14.33;48.80;97678.41;5396481;26;20086;-47
2024/05/06 04:49:50;;;;;;;1.27;1.15;;;;;;;14.28;49.11;97690.91;5398928;26;20077;-46
2024/05/06 04:52:20;;;;;;;1.27;1.23;;;;;;;14.30;49.19;97691.44;5398173;26;20000;-46
2024/05/06 04:54:52;;;;;;;1.25;1.20;;;;;;;14.24;49.55;97682.69;5399322;26;20445;-46
2024/05/06 04:57:22;;;;;;;2.10;1.90;;;;;;;14.25;49.02;97681.63;5399535;26;20011;-47
2024/05/06 04:59:51;;;;;;;1.23;1.20;;;;;;;14.29;48.90;97688.00;5402081;26;20340;-47
2024/05/06 05:02:21;;;;;;;1.35;1.20;;;;;;;14.31;48.93;97690.38;5400270;26;20010;-46
2024/05/06 05:04:50;;;;;;;0.98;0.98;;;;;;;14.30;48.94;97688.78;5402328;26;20069;-46
2024/05/06 05:07:20;;;;;;;2.13;1.23;;;;;;;14.33;49.21;97685.59;5389833;26;20020;-45
2024/05/06 05:09:52;;;;;;;1.63;1.05;;;;;;;14.35;48.91;97681.59;5398801;26;20014;-47
2024/05/06 05:12:22;;;;;;;1.10;1.10;;;;;;;14.31;49.20;97687.72;5401551;26;20348;-46
2024/05/06 05:14:51;;;;;;;1.40;1.30;;;;;;;14.30;49.17;97681.63;5412745;26;20015;-46
2024/05/06 05:17:21;;;;;;;2.20;1.30;;;;;;;14.23;49.47;97682.97;5400616;26;20353;-46
2024/05/06 05:19:50;;;;;;;1.33;1.23;;;;;;;14.15;49.67;97679.81;5383222;26;20013;-46
2024/05/06 05:22:20;;;;;;;1.33;0.98;;;;;;;14.18;49.27;97687.25;5398712;26;20003;-47
2024/05/06 05:24:52;;;;;;;1.23;1.13;;;;;;;14.22;49.62;97679.53;5401934;26;20394;-46
2024/05/06 05:27:22;;;;;;;1.05;0.93;;;;;;;14.17;49.40;97685.63;5400600;26;22166;-46
2024/05/06 05:29:51;;;;;;;2.30;1.10;;;;;;;14.20;49.69;97687.75;5401774;26;22172;-46
2024/05/06 05:32:21;;;;;;;1.83;1.73;;;;;;;14.25;49.51;97686.13;5400800;26;21120;-47
2024/05/06 05:34:51;;;;;;;1.55;1.38;;;;;;;14.30;49.76;97683.47;5384873;26;20662;-47
2024/05/06 05:37:21;;;;;;;1.85;1.45;;;;;;;14.34;49.70;97681.88;5399829;26;20607;-47
2024/05/06 05:39:55;;;;;;;2.20;2.00;;;;;;;14.36;49.56;97690.34;5396831;26;20987;-47
2024/05/06 05:42:25;;;;;;;1.90;1.80;;;;;;;14.41;49.47;97677.06;5401458;26;20636;-47
2024/05/06 05:44:54;;;;;;;1.70;1.60;;;;;;;14.43;49.00;97690.84;5401973;26;21915;-46
2024/05/06 05:47:24;;;;;;;1.30;1.27;;;;;;;14.44;48.90;97689.75;5400499;26;21799;-46
2024/05/06 05:49:54;;;;;;;2.10;1.45;;;;;;;14.46;48.99;97690.34;5400975;26;20300;-45
2024/05/06 05:52:23;;;;;;;1.38;1.13;;;;;;;14.46;48.95;97690.34;5402104;26;21777;-47
2024/05/06 05:54:56;;;;;;;1.38;1.30;;;;;;;14.42;49.11;97702.53;5401236;26;20902;-46
2024/05/06 05:57:26;;;;;;;1.92;1.83;;;;;;;14.45;48.83;97706.53;5398562;26;20015;-47
2024/05/06 05:59:55;;;;;;;1.65;1.50;;;;;;;14.48;48.65;97700.69;5387173;26;20027;-46
2024/05/06 06:02:25;;;;;;;1.48;1.38;;;;;;;14.52;48.73;97707.84;5398396;26;21972;-47
2024/05/06 06:04:54;;;;;;;1.65;1.40;;;;;;;14.53;48.83;97706.78;5399919;26;20778;-46
2024/05/06 06:07:24;;;;;;;1.08;1.08;;;;;;;14.57;48.43;97701.72;5399832;26;20402;-45
2024/05/06 06:09:56;;;;;;;2.20;2.10;;;;;;;14.62;48.60;97706.19;5400010;26;20500;-47
2024/05/06 06:12:26;;;;;;;1.23;1.20;;;;;;;14.66;48.00;97709.91;5398752;26;20018;-46
2024/05/06 06:14:56;;;;;;;1.35;1.30;;;;;;;14.72;48.05;97717.56;5417034;26;21677;-46
2024/05/06 06:17:25;;;;;;;1.27;1.17;;;;;;;14.70;48.41;97716.25;5399319;26;21115;-47
2024/05/06 06:19:55;;;;;;;1.10;1.10;;;;;;;14.70;48.27;97714.38;5382274;26;20007;-46
2024/05/06 06:22:24;;;;;;;2.33;1.40;;;;;;;14.70;48.13;97717.03;5399335;26;20098;-47
2024/05/06 06:24:57;;;;;;;1.25;1.15;;;;;;;14.71;48.27;97721.31;5291709;26;20020;-46
2024/05/06 06:27:27;;;;;;;1.35;1.25;;;;;;;14.73;48.07;97718.38;5292088;26;20603;-46
2024/05/06 06:29:57;;;;;;;2.28;1.27;;;;;;;14.73;48.37;97719.16;5293191;26;20195;-46
2024/05/06 06:32:26;;;;;;;1.95;1.58;;;;;;;14.75;48.20;97725.00;5292769;26;20092;-46
2024/05/06 06:34:56;;;;;;;1.30;1.30;;;;;;;14.76;48.04;97715.97;5292475;26;20013;-46
2024/05/06 06:37:25;;;;;;;1.13;1.13;;;;;;;14.73;48.13;97723.69;5275556;26;20016;-46
2024/05/06 06:39:57;;;;;;;1.83;1.73;;;;;;;14.71;48.34;97716.00;5293230;26;20016;-46
2024/05/06 06:42:27;;;;;;;2.20;2.00;;;;;;;14.75;48.51;97713.56;5313787;26;20008;-46
2024/05/06 06:44:57;;;;;;;4.22;2.67;;;;;;;14.76;48.38;97712.50;5401496;26;20049;-47
2024/05/06 06:47:27;;;;;;;1.80;1.50;;;;;;;14.78;48.52;97721.00;5392252;26;20263;-46
2024/05/06 06:49:59;;;;;;;2.65;1.42;;;;;;;14.82;48.57;97721.25;5375026;26;20019;-47
2024/05/06 06:52:28;;;;;;;1.23;1.23;;;;;;;14.83;48.53;97728.97;5382685;26;20004;-46
2024/05/06 06:55:01;;;;;;;1.30;1.30;;;;;;;14.84;48.58;97730.53;5393203;26;20011;-47
2024/05/06 06:57:30;;;;;;;3.00;2.70;;;;;;;14.87;48.38;97729.19;5392505;26;20440;-46
2024/05/06 07:00:00;;;;;;;4.85;3.72;;;;;;;14.88;48.35;97731.59;5391556;26;20003;-46
2024/05/06 07:02:29;;;;;;;5.20;2.92;;;;;;;14.90;48.41;97734.75;5391603;26;20003;-46
2024/05/06 07:04:59;;;;;;;3.00;2.58;;;;;;;14.93;48.41;97736.06;5383055;26;20451;-46
2024/05/06 07:07:29;;;;;;;3.20;1.70;;;;;;;14.94;48.18;97743.78;5388083;26;20460;-46
2024/05/06 07:10:01;;;;;;;1.95;1.67;;;;;;;14.97;48.47;97739.75;5401810;26;20540;-46
2024/05/06 07:12:30;;;;;;;2.63;1.38;;;;;;;14.93;48.44;97738.72;5224081;27;20022;-46
2024/05/06 07:15:00;;;;;;;1.50;1.40;;;;;;;14.85;48.78;97741.94;5237496;27;20018;-46
2024/05/06 07:17:30;;;;;;;1.30;1.20;;;;;;;14.89;48.67;97746.47;5206837;27;20015;-47
2024/05/06 07:19:59;;;;;;;1.73;1.23;;;;;;;14.99;48.44;97744.81;5213762;27;20313;-47
2024/05/06 07:22:29;;;;;;;2.03;1.92;;;;;;;15.04;48.22;97747.44;5202811;27;20053;-46
2024/05/06 07:25:01;;;;;;;4.68;3.30;;;;;;;15.08;48.57;97743.16;5226163;27;20011;-47
2024/05/06 07:27:30;;;;;;;2.72;2.42;;;;;;;15.16;48.15;97755.88;5214070;27;22177;-46
2024/05/06 07:30:00;;;;;;;2.38;2.17;;;;;;;15.20;48.06;97748.94;5243702;26;21096;-46
2024/05/06 07:32:29;;;;;;;1.90;1.80;;;;;;;15.23;47.60;97752.91;5385697;26;21690;-46
2024/05/06 07:35:00;;;;;;;2.10;1.88;;;;;;;15.27;47.38;97753.94;5374537;26;20602;-46
2024/05/06 07:37:30;;;;;;;1.77;1.60;;;;;;;15.28;47.01;97751.03;5385732;26;21762;-46
2024/05/06 07:40:02;;;;;;;1.90;1.48;;;;;;;15.32;46.92;97748.59;5399046;26;20546;-46
2024/05/06 07:42:35;;;;;;;1.90;1.75;;;;;;;15.29;47.27;97743.84;5399019;26;20079;-46
2024/05/06 07:45:05;;;;;;;2.78;1.63;;;;;;;15.33;46.78;97739.56;5399611;26;19999;-46
2024/05/06 07:47:34;;;;;;;1.90;1.40;;;;;;;15.36;46.89;97751.50;5398297;26;19999;-45
2024/05/06 07:50:04;;;;;;;3.22;2.38;;;;;;;15.30;46.75;97746.22;5398098;26;20011;-43
2024/05/06 07:52:34;;;;;;;2.42;1.48;;;;;;;15.34;46.48;97739.28;5400911;26;20007;-46
2024/05/06 07:55:07;;;;;;;1.73;1.58;;;;;;;15.40;46.38;97747.22;5397836;26;20885;-43
2024/05/06 07:57:37;;;;;;;3.63;2.25;;;;;;;15.42;46.54;97745.88;5397583;26;22107;-43
2024/05/06 08:00:08;;;;;;;2.03;1.83;;;;;;;15.30;46.12;97751.53;5399229;26;20003;-43
2024/05/06 08:02:38;;;;;;;3.05;1.92;;;;;;;15.10;45.80;97744.47;5398972;26;20481;-43
2024/05/06 08:05:08;;;;;;;2.15;1.75;;;;;;;15.04;45.78;97747.44;5398587;26;19995;-42
2024/05/06 08:07:38;;;;;;;1.73;1.48;;;;;;;15.20;45.98;97751.59;5399294;26;20010;-43
2024/05/06 08:10:12;;;;;;;1.40;1.25;;;;;;;15.35;46.17;97756.03;5399837;26;20393;-42
2024/05/06 08:12:41;;;;;;;2.55;1.40;;;;;;;15.40;46.71;97747.22;5399257;26;20461;-43
2024/05/06 08:15:11;;;;;;;1.70;1.40;;;;;;;15.56;46.50;97753.22;5399169;26;20004;-43
2024/05/06 08:17:40;;;;;;;1.88;1.17;;;;;;;15.75;46.83;97745.31;5406704;26;20094;-43
2024/05/06 08:20:11;;;;;;;1.40;1.30;;;;;;;15.89;46.31;97748.94;5396350;26;20003;-43
2024/05/06 08:22:40;;;;;;;2.13;1.50;;;;;;;15.94;46.41;97748.84;5401218;26;20010;-42
2024/05/06 08:25:15;;;;;;;1.17;1.17;;;;;;;16.05;46.64;97747.72;5426674;26;20003;-43
2024/05/06 08:27:44;;;;;;;1.95;1.55;;;;;;;16.11;46.42;97745.00;5390378;26;19999;-43
2024/05/06 08:30:14;;;;;;;1.48;1.33;;;;;;;16.10;46.41;97738.84;5397654;26;20011;-43
2024/05/06 08:32:44;;;;;;;1.25;1.25;;;;;;;16.18;46.25;97740.13;5414402;26;20004;-43
2024/05/06 08:35:14;;;;;;;1.30;1.30;;;;;;;16.26;45.76;97742.16;5413884;26;20000;-43
2024/05/06 08:37:43;;;;;;;1.65;1.38;;;;;;;16.29;45.24;97733.59;5399552;26;20076;-43
2024/05/06 08:40:16;;;;;;;1.92;1.65;;;;;;;16.35;45.67;97736.97;5395715;26;20010;-43
2024/05/06 08:42:49;;;;;;;1.40;1.30;;;;;;;16.40;45.74;97729.72;5422004;26;20007;-43
2024/05/06 08:45:20;;;;;;;1.75;1.33;;;;;;;16.41;45.61;97730.53;5396854;26;20072;-43
2024/05/06 08:47:50;;;;;;;3.00;1.80;;;;;;;16.40;45.70;97723.59;5397438;26;21937;-43
2024/05/06 08:50:20;;;;;;;1.65;1.55;;;;;;;16.41;45.39;97727.84;5399070;26;20291;-43
2024/05/06 08:52:54;;;;;;;2.05;1.85;;;;;;;15.99;43.21;97740.03;5399559;26;20639;-43
2024/05/06 08:55:26;;;;;;;2.15;1.38;;;;;;;15.96;44.12;97740.56;5397110;26;21828;-44
2024/05/06 08:57:56;;;;;;;1.45;1.35;;;;;;;15.97;44.57;97742.19;5406092;26;20233;-43
2024/05/06 09:00:30;;;;;;;1.85;1.40;;;;;;;16.02;43.04;97734.91;5398052;26;20008;-43
2024/05/06 09:03:01;;;;;;;1.40;1.30;;;;;;;15.94;44.14;97740.84;5398052;26;22102;-43
2024/05/06 09:05:36;;;;;;;2.00;1.50;;;;;;;16.03;44.35;97736.53;5390213;26;20018;-43
2024/05/06 09:08:07;;;;;;;2.28;1.48;;;;;;;16.13;45.10;97738.28;5411742;26;20015;-43
2024/05/06 09:10:39;;;;;;;2.15;1.30;;;;;;;16.12;44.37;97733.25;5394892;26;20461;-43
2024/05/06 09:13:09;;;;;;;2.45;1.55;;;;;;;16.15;44.94;97738.00;5395363;26;20862;-43
2024/05/06 09:15:39;;;;;;;1.65;1.02;;;;;;;16.13;45.44;97732.19;5395208;26;20004;-43
2024/05/06 09:18:10;;;;;;;1.33;1.23;;;;;;;16.27;45.09;97735.75;5396634;26;20004;-44
2024/05/06 09:20:40;;;;;;;1.55;1.27;;;;;;;16.27;44.01;97730.41;5390973;26;20008;-43
2024/05/06 09:23:13;;;;;;;1.67;1.17;;;;;;;16.30;44.08;97724.53;5395915;26;20078;-43
2024/05/06 09:25:47;;;;;;;1.48;1.38;;;;;;;16.35;44.25;97731.66;5385492;26;20078;-43
2024/05/06 09:28:17;;;;;;;1.52;1.40;;;;;;;16.40;44.01;97728.91;5381793;26;20073;-44
2024/05/06 09:30:50;;;;;;;1.48;1.38;;;;;;;16.45;43.70;97732.34;5392205;26;20372;-43
2024/05/06 09:33:23;;;;;;;1.65;1.55;;;;;;;16.48;42.23;97736.28;5392324;26;20007;-43
2024/05/06 09:35:58;;;;;;;1.88;1.63;;;;;;;16.45;43.22;97727.00;5379071;26;20941;-43
2024/05/06 09:38:32;;;;;;;1.67;1.48;;;;;;;16.51;43.36;97725.06;5396763;26;20565;-43
2024/05/06 09:41:14;;;;;;;1.50;1.30;;;;;;;16.62;43.38;97734.50;5399588;26;20004;-42
2024/05/06 09:43:45;;;;;;;1.38;1.27;;;;;;;16.67;43.56;97726.44;5406401;26;20085;-43
2024/05/06 09:46:17;;;;;;;3.42;1.58;;;;;;;16.74;43.01;97725.31;5400962;26;20408;-43
2024/05/06 09:48:48;;;;;;;1.20;1.17;;;;;;;16.84;41.98;97722.50;5400769;26;20348;-43
2024/05/06 09:51:19;;;;;;;1.42;1.23;;;;;;;16.85;42.46;97724.88;5401463;26;21628;-43
2024/05/06 09:53:49;;;;;;;1.70;1.60;;;;;;;16.89;42.61;97730.44;5398539;26;21608;-43
2024/05/06 09:56:22;;;;;;;2.22;1.60;;;;;;;16.96;43.13;97730.09;5401423;26;20527;-43
2024/05/06 09:58:53;;;;;;;1.80;1.70;;;;;;;16.99;42.66;97732.19;5393712;26;20466;-43
2024/05/06 10:01:23;;;;;;;1.92;1.50;;;;;;;17.03;43.01;97735.84;5400403;26;19996;-43
2024/05/06 10:03:52;;;;;;;3.13;1.65;;;;;;;17.16;43.07;97737.78;5399280;26;22370;-43
2024/05/06 10:06:23;;;;;;;1.40;1.30;;;;;;;17.25;42.73;97737.13;5399507;26;21802;-43
2024/05/06 10:08:55;;;;;;;1.83;1.60;;;;;;;17.33;43.01;97739.91;5389937;26;20965;-43
2024/05/06 10:11:28;;;;;;;1.50;1.40;;;;;;;17.37;42.60;97745.47;5398825;26;20449;-43
2024/05/06 10:13:57;;;;;;;1.50;1.40;;;;;;;17.32;41.80;97735.69;5413782;26;20032;-43
2024/05/06 10:16:28;;;;;;;2.15;1.48;;;;;;;17.35;41.78;97739.63;5401135;26;20000;-42
2024/05/06 10:18:59;;;;;;;2.95;1.70;;;;;;;17.36;41.74;97742.00;5400529;26;20077;-43
2024/05/06 10:21:36;;;;;;;2.10;1.70;;;;;;;17.14;42.53;97745.31;5401486;26;20018;-43
2024/05/06 10:24:11;;;;;;;2.95;1.50;;;;;;;16.97;42.87;97743.13;5399414;26;19999;-43
2024/05/06 10:26:48;;;;;;;2.13;1.58;;;;;;;17.11;42.89;97747.75;5390463;26;19999;-43
2024/05/06 10:29:19;;;;;;;3.20;1.88;;;;;;;17.05;40.50;97741.69;5393094;26;20717;-43
2024/05/06 10:31:50;;;;;;;1.73;1.50;;;;;;;17.06;41.06;97745.16;5376976;26;21684;-42
2024/05/06 10:34:20;;;;;;;3.75;1.50;;;;;;;16.83;41.27;97748.41;5400283;26;20494;-43
2024/05/06 10:37:02;;;;;;;3.55;1.77;;;;;;;16.70;41.81;97756.28;5400687;26;20223;-43
2024/05/06 10:39:33;;;;;;;4.03;2.00;;;;;;;16.49;42.58;97753.88;5400611;26;22202;-43
2024/05/06 10:42:10;;;;;;;1.98;1.73;;;;;;;16.50;41.59;97755.47;5398699;26;20003;-43
2024/05/06 10:44:45;;;;;;;1.95;1.48;;;;;;;16.21;42.05;97748.34;5400431;26;19999;-43
2024/05/06 10:47:18;;;;;;;2.67;1.50;;;;;;;16.19;42.47;97747.03;5290959;26;20075;-43
2024/05/06 10:49:49;;;;;;;2.50;1.48;;;;;;;16.20;42.19;97753.94;5289412;26;20013;-43
2024/05/06 10:52:19;;;;;;;4.25;2.00;;;;;;;16.18;42.87;97750.78;5289333;27;19998;-43
2024/05/06 10:54:49;;;;;;;3.28;1.45;;;;;;;16.44;42.42;97754.72;5292423;27;20671;-43
2024/05/06 10:57:22;;;;;;;1.27;1.20;;;;;;;16.66;41.50;97740.06;5292018;27;20005;-43
2024/05/06 10:59:52;;;;;;;1.90;1.58;;;;;;;16.78;40.72;97744.97;5293416;26;20017;-43
2024/05/06 11:02:23;;;;;;;2.03;1.70;;;;;;;16.65;39.96;97743.81;5291581;26;20010;-43
2024/05/06 11:04:53;;;;;;;1.63;1.48;;;;;;;16.32;40.25;97741.03;5307894;26;20799;-43
2024/05/06 11:07:24;;;;;;;2.00;1.60;;;;;;;16.24;40.25;97750.44;5386056;26;20000;-44
2024/05/06 11:09:53;;;;;;;1.60;1.50;;;;;;;16.48;40.16;97741.63;5392412;26;20947;-43
2024/05/06 11:12:26;;;;;;;3.20;1.50;;;;;;;16.26;39.97;97752.84;5384597;26;20951;-43
2024/05/06 11:14:55;;;;;;;5.38;2.10;;;;;;;16.51;40.61;97740.25;5384530;26;21554;-43
2024/05/06 11:17:25;;;;;;;2.25;1.30;;;;;;;16.46;40.26;97738.47;5399650;26;20012;-45
2024/05/06 11:19:54;;;;;;;1.60;1.50;;;;;;;16.31;39.71;97747.41;5395054;26;20137;-43
2024/05/06 11:22:26;;;;;;;2.22;1.38;;;;;;;16.20;40.50;97746.75;5396857;26;22280;-44
2024/05/06 11:24:57;;;;;;;3.50;1.63;;;;;;;16.08;40.31;97757.81;5399658;26;21194;-44
2024/05/06 11:27:30;;;;;;;1.35;1.20;;;;;;;16.04;40.15;97742.63;5390644;26;22995;-42
2024/05/06 11:30:00;;;;;;;3.35;1.40;;;;;;;16.22;40.32;97752.56;5400739;26;20012;-43
2024/05/06 11:32:31;;;;;;;3.22;1.70;;;;;;;16.16;40.43;97750.28;5396765;26;20681;-43
2024/05/06 11:35:01;;;;;;;3.70;1.90;;;;;;;16.32;40.26;97749.00;5397540;26;20012;-43
2024/05/06 11:37:30;;;;;;;2.88;2.08;;;;;;;16.05;40.74;97747.72;5401146;26;20015;-43
2024/05/06 11:40:00;;;;;;;2.17;1.52;;;;;;;16.05;41.40;97745.03;5393252;26;20525;-43
2024/05/06 11:42:33;;;;;;;1.45;1.27;;;;;;;16.52;40.65;97747.19;5399991;26;20012;-43
2024/05/06 11:45:03;;;;;;;3.60;1.73;;;;;;;16.19;40.31;97755.81;5400695;26;20725;-43
2024/05/06 11:47:32;;;;;;;3.10;1.40;;;;;;;16.29;41.07;97757.56;5398197;26;20353;-43
2024/05/06 11:50:02;;;;;;;1.58;1.25;;;;;;;16.49;41.77;97745.91;5399596;26;20070;-43
2024/05/06 11:52:33;;;;;;;1.33;1.23;;;;;;;16.72;41.48;97756.78;5398544;26;20000;-43